TDT weather

Tanda Tula Airport
Welverdiend, Limpopo, South Africa

Public forecast

Using degrees Celsius for public forecast. Weather courtesy of forecast.io.

METAR (pilot weather report)

Closest report is Hoedspruit Air Force Base Airport, 16.9 nm (31.4 km) NW. Retrieved 2019/09/23 16:00 UTC (52 minutes ago):

FAHS 231600Z AUTO 17013KT //// // ////// 20/11 Q1023

TAF (pilot weather forecast)

Forecast is more than 12 hours old.

Closest forecast is Hoedspruit Air Force Base Airport, 16.9 nm (31.4 km) NW. Retrieved 2017/05/23 04:01 UTC (2 years ago):

TAF FAHS 230300Z 2304/2315 VRB02KT CAVOK TX29/2312ZTN12/2304Z